createdAt,value
2018-11-21T00:01:33.386Z,96862.81
2018-11-21T00:04:00.971Z,96864.14
2018-11-21T00:06:28.560Z,96860.30
2018-11-21T00:08:56.185Z,96855.18
2018-11-21T00:11:23.840Z,96858.16
2018-11-21T00:13:51.411Z,96860.98
2018-11-21T00:16:19.039Z,96867.44
2018-11-21T00:18:46.674Z,96870.60
2018-11-21T00:21:14.325Z,96874.20
2018-11-21T00:23:42.011Z,96870.91
2018-11-21T00:26:09.609Z,96874.28
2018-11-21T00:28:37.210Z,96873.53
2018-11-21T00:31:04.898Z,96874.59
2018-11-21T00:33:32.507Z,96885.30
2018-11-21T00:36:00.151Z,96883.87
2018-11-21T00:38:27.761Z,96884.67
2018-11-21T00:40:55.403Z,96889.22
2018-11-21T00:43:22.996Z,96893.00
2018-11-21T00:45:50.605Z,96902.67
2018-11-21T00:48:18.214Z,96906.47
2018-11-21T00:50:45.790Z,96900.53
2018-11-21T00:53:13.513Z,96902.95
2018-11-21T00:55:41.094Z,96911.73
2018-11-21T00:58:08.709Z,96914.48
2018-11-21T01:00:36.300Z,96919.61
2018-11-21T01:03:03.897Z,96920.14
2018-11-21T01:05:31.646Z,96915.11
2018-11-21T01:07:59.330Z,96920.45
2018-11-21T01:10:26.923Z,96921.71
2018-11-21T01:12:54.511Z,96920.33
2018-11-21T01:15:22.129Z,96919.76
2018-11-21T01:17:49.936Z,96917.16
2018-11-21T01:20:17.595Z,96914.00
2018-11-21T01:22:45.196Z,96916.98
2018-11-21T01:25:12.829Z,96916.31
2018-11-21T01:27:40.466Z,96914.26
2018-11-21T01:30:08.334Z,96915.52
2018-11-21T01:32:35.941Z,96910.78
2018-11-21T01:35:03.542Z,96908.50
2018-11-21T01:37:31.156Z,96912.43
2018-11-21T01:39:58.831Z,96913.16
2018-11-21T01:42:26.504Z,96914.70
2018-11-21T01:44:54.128Z,96904.82
2018-11-21T01:47:21.707Z,96906.70
2018-11-21T01:49:49.345Z,96909.58
2018-11-21T01:52:16.949Z,96911.28
2018-11-21T01:54:44.605Z,96909.37
2018-11-21T01:57:12.196Z,96908.03
2018-11-21T01:59:39.858Z,96900.81
2018-11-21T02:02:07.522Z,96898.98
2018-11-21T02:04:35.147Z,96898.57
2018-11-21T02:07:02.851Z,96900.63
2018-11-21T02:09:30.525Z,96905.20
2018-11-21T02:11:58.156Z,96896.39
2018-11-21T02:14:25.767Z,96895.59
2018-11-21T02:16:53.373Z,96900.63
2018-11-21T02:19:21.048Z,96905.44
2018-11-21T02:21:48.662Z,96914.30
2018-11-21T02:24:16.258Z,96910.60
2018-11-21T02:26:43.904Z,96914.26
2018-11-21T02:29:11.508Z,96922.73
2018-11-21T02:31:39.187Z,96919.11
2018-11-21T02:34:06.796Z,96921.97
2018-11-21T02:36:34.451Z,96918.39
2018-11-21T02:39:02.061Z,96920.53
2018-11-21T02:41:29.715Z,96923.20
2018-11-21T02:43:57.355Z,96917.91
2018-11-21T02:46:24.972Z,96919.01
2018-11-21T02:48:52.614Z,96916.34
2018-11-21T02:51:20.222Z,96912.71
2018-11-21T02:53:47.890Z,96912.25
2018-11-21T02:56:15.507Z,96916.11
2018-11-21T02:58:43.113Z,96922.22
2018-11-21T03:01:10.750Z,96915.00
2018-11-21T03:03:38.348Z,96927.26
2018-11-21T03:06:06.005Z,96932.30
2018-11-21T03:08:33.604Z,96936.00
2018-11-21T03:11:01.243Z,96939.86
2018-11-21T03:13:28.920Z,96949.33
2018-11-21T03:15:56.558Z,96953.57
2018-11-21T03:18:24.210Z,96877.89
2018-11-21T03:20:51.795Z,96954.14
2018-11-21T03:23:19.429Z,96962.89
2018-11-21T03:25:47.032Z,96963.66
2018-11-21T03:28:14.688Z,96960.14
2018-11-21T03:30:42.288Z,96962.58
2018-11-21T03:33:10.536Z,96967.97
2018-11-21T03:35:38.128Z,96965.91
2018-11-21T03:38:05.743Z,96959.48
2018-11-21T03:40:33.327Z,96972.05
2018-11-21T03:43:00.928Z,96979.23
2018-11-21T03:45:28.544Z,96979.77
2018-11-21T03:47:56.163Z,96984.31
2018-11-21T03:50:23.783Z,96978.66
2018-11-21T03:52:51.381Z,96982.86
2018-11-21T03:55:19.008Z,96989.35
2018-11-21T03:57:46.598Z,96990.87
2018-11-21T04:00:14.320Z,96986.33
2018-11-21T04:02:42.268Z,96993.78
2018-11-21T04:05:10.480Z,96988.20
2018-11-21T04:07:38.299Z,96985.30
2018-11-21T04:10:08.116Z,96984.27
2018-11-21T04:12:35.766Z,96994.09
2018-11-21T04:15:03.410Z,96996.30
2018-11-21T04:17:30.998Z,96998.17
2018-11-21T04:19:58.584Z,96992.29
2018-11-21T04:22:26.193Z,96995.27
2018-11-21T04:24:53.815Z,96991.26
2018-11-21T04:27:21.420Z,96985.04
2018-11-21T04:29:49.022Z,96976.86
2018-11-21T04:32:16.621Z,96983.84
2018-11-21T04:34:44.234Z,96981.41
2018-11-21T04:37:11.822Z,96989.20
2018-11-21T04:39:39.439Z,96994.28
2018-11-21T04:42:07.022Z,96996.48
2018-11-21T04:44:34.672Z,96997.14
2018-11-21T04:47:02.286Z,97005.47
2018-11-21T04:49:29.915Z,97010.20
2018-11-21T04:51:57.531Z,97008.63
2018-11-21T04:54:25.154Z,97015.36
2018-11-21T04:56:52.797Z,97019.98
2018-11-21T04:59:20.440Z,97018.34
2018-11-21T05:01:48.069Z,97022.61
2018-11-21T05:04:15.745Z,97020.47
2018-11-21T05:06:43.347Z,97025.21
2018-11-21T05:09:11.938Z,97019.13
2018-11-21T05:11:39.552Z,97036.28
2018-11-21T05:14:07.352Z,97051.70
2018-11-21T05:16:34.950Z,97049.57
2018-11-21T05:19:02.600Z,97046.09
2018-11-21T05:21:30.211Z,97052.05
2018-11-21T05:23:57.802Z,97050.72
2018-11-21T05:26:25.425Z,97050.25
2018-11-21T05:28:53.007Z,97041.20
2018-11-21T05:31:20.638Z,97032.38
2018-11-21T05:33:48.270Z,97035.48
2018-11-21T05:36:15.859Z,97037.05
2018-11-21T05:38:43.465Z,97044.91
2018-11-21T05:41:11.103Z,97044.03
2018-11-21T05:43:38.728Z,97048.61
2018-11-21T05:46:06.314Z,97048.30
2018-11-21T05:48:33.949Z,97050.67
2018-11-21T05:51:01.525Z,97052.24
2018-11-21T05:53:29.147Z,97052.78
2018-11-21T05:55:56.756Z,97056.86
2018-11-21T05:58:24.371Z,97062.74
2018-11-21T06:00:51.957Z,97065.11
2018-11-21T06:03:19.566Z,97069.42
2018-11-21T06:05:47.207Z,97068.09
2018-11-21T06:08:14.852Z,97068.66
2018-11-21T06:10:42.480Z,97068.95
2018-11-21T06:13:10.121Z,97075.38
2018-11-21T06:15:37.701Z,97071.86
2018-11-21T06:18:05.291Z,97073.70
2018-11-21T06:20:32.933Z,97072.90
2018-11-21T06:23:00.591Z,97073.73
2018-11-21T06:25:28.182Z,97074.73
2018-11-21T06:27:55.806Z,97077.14
2018-11-21T06:30:23.400Z,97074.34
2018-11-21T06:32:50.967Z,97080.02
2018-11-21T06:35:18.646Z,97082.50
2018-11-21T06:37:46.224Z,97087.55
2018-11-21T06:40:15.278Z,97085.24
2018-11-21T06:42:52.758Z,97091.31
2018-11-21T06:45:20.812Z,97093.31
2018-11-21T06:47:48.421Z,97092.66
2018-11-21T06:50:16.020Z,97097.44
2018-11-21T06:52:43.653Z,97099.64
2018-11-21T06:55:11.555Z,97098.77
2018-11-21T06:57:39.406Z,97099.94
2018-11-21T07:00:07.885Z,97106.86
2018-11-21T07:02:37.063Z,97117.05
2018-11-21T07:05:05.417Z,97117.24
2018-11-21T07:07:33.112Z,97115.70
2018-11-21T07:10:00.727Z,97118.38
2018-11-21T07:12:28.393Z,97111.16
2018-11-21T07:14:56.169Z,97115.67
2018-11-21T07:17:23.822Z,97116.70
2018-11-21T07:19:51.567Z,97121.79
2018-11-21T07:22:19.161Z,97120.72
2018-11-21T07:24:46.769Z,97131.14
2018-11-21T07:27:14.443Z,97123.73
2018-11-21T07:29:42.093Z,97126.80
2018-11-21T07:32:09.776Z,97136.25
2018-11-21T07:34:37.439Z,97142.73
2018-11-21T07:37:05.094Z,97150.95
2018-11-21T07:39:32.723Z,97163.71
2018-11-21T07:42:00.369Z,97152.79
2018-11-21T07:44:28.056Z,97149.38
2018-11-21T07:46:55.714Z,97151.05
2018-11-21T07:49:23.324Z,97152.29
2018-11-21T07:51:50.952Z,97145.67
2018-11-21T07:54:18.618Z,97151.45
2018-11-21T07:57:05.667Z,97147.55
2018-11-21T07:59:33.252Z,97140.56
2018-11-21T08:02:13.064Z,97146.44
2018-11-21T08:04:51.075Z,97148.64
2018-11-21T08:07:27.275Z,97150.72
2018-11-21T08:10:16.792Z,97154.72
2018-11-21T08:13:03.557Z,97151.48
2018-11-21T08:15:50.312Z,97157.39
2018-11-21T08:18:55.490Z,97158.23
2018-11-21T08:21:41.135Z,97154.52
2018-11-21T08:24:17.418Z,97161.73
2018-11-21T08:27:16.443Z,97166.25
2018-11-21T08:29:44.229Z,97167.82
2018-11-21T08:32:12.150Z,97165.11
2018-11-21T08:34:39.876Z,97165.15
2018-11-21T08:37:26.854Z,97169.16
2018-11-21T08:39:54.670Z,97169.95
2018-11-21T08:42:22.784Z,97176.84
2018-11-21T08:44:50.366Z,97178.17
2018-11-21T08:47:18.232Z,97194.68
2018-11-21T08:49:48.311Z,97194.45
2018-11-21T08:52:16.076Z,97194.15
2018-11-21T08:54:43.820Z,97197.66
2018-11-21T08:57:11.445Z,97198.45
2018-11-21T08:59:39.126Z,97205.88
2018-11-21T09:02:06.763Z,97210.55
2018-11-21T09:07:07.576Z,97215.89
2018-11-21T09:09:35.191Z,97215.39
2018-11-21T09:14:35.674Z,97224.88
2018-11-21T09:17:03.286Z,97220.67
2018-11-21T09:19:30.952Z,97229.99
2018-11-21T09:21:59.209Z,97228.09
2018-11-21T09:24:26.372Z,97229.73
2018-11-21T09:29:27.066Z,97232.70
2018-11-21T09:31:54.730Z,97234.00
2018-11-21T09:34:22.420Z,97234.90
2018-11-21T09:36:50.205Z,97230.89
2018-11-21T09:39:17.854Z,97238.16
2018-11-21T09:41:45.517Z,97231.95
2018-11-21T09:44:13.170Z,97231.42
2018-11-21T09:46:40.742Z,97228.81
2018-11-21T09:49:08.374Z,97228.75
2018-11-21T09:51:35.976Z,97220.53
2018-11-21T09:54:03.555Z,97218.72
2018-11-21T09:56:31.214Z,97213.98
2018-11-21T09:58:58.803Z,97214.72
2018-11-21T10:01:45.703Z,97215.78
2018-11-21T10:04:13.280Z,97206.70
2018-11-21T10:06:41.889Z,97206.43
2018-11-21T10:09:28.596Z,97210.94
2018-11-21T10:11:56.174Z,97220.59
2018-11-21T10:14:23.763Z,97216.82
2018-11-21T10:16:51.386Z,97214.35
2018-11-21T10:19:18.958Z,97210.70
2018-11-21T10:22:05.850Z,97216.42
2018-11-21T10:24:33.420Z,97221.48
2018-11-21T10:27:20.107Z,97225.13
2018-11-21T10:29:47.686Z,97218.98
2018-11-21T10:32:15.277Z,97207.58
2018-11-21T10:35:02.167Z,97205.60
2018-11-21T10:37:29.731Z,97215.75
2018-11-21T10:39:57.328Z,97218.00
2018-11-21T10:42:24.905Z,97224.86
2018-11-21T10:44:52.482Z,97223.89
2018-11-21T10:47:20.056Z,97222.05
2018-11-21T10:49:47.640Z,97218.02
2018-11-21T10:52:15.222Z,97222.72
2018-11-21T10:54:42.826Z,97220.78
2018-11-21T10:57:10.424Z,97219.21
2018-11-21T10:59:38.023Z,97217.21
2018-11-21T11:02:24.742Z,97217.52
2018-11-21T11:05:11.439Z,97217.91
2018-11-21T11:07:58.157Z,97221.32
2018-11-21T11:10:44.860Z,97216.48
2018-11-21T11:13:35.384Z,97224.00
2018-11-21T11:16:18.270Z,97226.94
2018-11-21T11:19:05.029Z,97226.97
2018-11-21T11:21:51.750Z,97225.03
2018-11-21T11:24:38.456Z,97227.56
2018-11-21T11:27:25.162Z,97233.72
2018-11-21T11:30:11.882Z,97231.70
2018-11-21T11:32:58.572Z,97225.99
2018-11-21T11:35:45.267Z,97229.17
2018-11-21T11:38:31.982Z,97232.68
2018-11-21T11:41:18.681Z,97236.16
2018-11-21T11:44:05.399Z,97232.75
2018-11-21T11:46:52.100Z,97230.38
2018-11-21T11:49:33.189Z,97220.78
2018-11-21T11:52:39.535Z,97224.19
2018-11-21T11:55:26.771Z,97227.54
2018-11-21T11:58:13.480Z,97229.11
2018-11-21T12:01:00.206Z,97227.47
2018-11-21T12:03:46.933Z,97234.09
2018-11-21T12:06:33.622Z,97236.48
2018-11-21T12:09:39.637Z,97222.25
2018-11-21T12:12:26.323Z,97215.62
2018-11-21T12:15:13.051Z,97224.98
2018-11-21T12:17:59.746Z,97226.33
2018-11-21T12:20:46.457Z,97227.66
2018-11-21T12:23:33.198Z,97230.23
2018-11-21T12:26:19.916Z,97222.38
2018-11-21T12:29:06.603Z,97218.20
2018-11-21T12:31:53.725Z,97221.30
2018-11-21T12:34:41.054Z,97221.47
2018-11-21T12:37:27.752Z,97217.63
2018-11-21T12:40:14.533Z,97232.22
2018-11-21T12:43:01.216Z,97231.63
2018-11-21T12:45:47.930Z,97225.14
2018-11-21T12:48:34.644Z,97226.03
2018-11-21T12:51:40.648Z,97227.97
2018-11-21T12:54:27.332Z,97231.31
2018-11-21T12:57:06.787Z,97224.81
2018-11-21T12:59:53.534Z,97231.12
2018-11-21T13:02:40.246Z,97226.88
2018-11-21T13:05:26.940Z,97229.63
2018-11-21T13:08:13.666Z,97232.59
2018-11-21T13:13:58.477Z,97239.47
2018-11-21T13:17:04.488Z,97242.73
2018-11-21T13:19:51.188Z,97241.81
2018-11-21T13:22:37.885Z,97238.06
2018-11-21T13:25:24.881Z,97238.72
2018-11-21T13:28:11.555Z,97239.75
2018-11-21T13:31:17.584Z,97243.09
2018-11-21T13:33:56.777Z,97241.59
2018-11-21T13:37:02.761Z,97244.61
2018-11-21T13:39:49.456Z,97247.97
2018-11-21T13:42:36.151Z,97251.98
2018-11-21T13:45:22.884Z,97253.86
2018-11-21T13:48:09.628Z,97251.41
2018-11-21T13:50:56.330Z,97252.03
2018-11-21T13:53:32.241Z,97249.34
2018-11-21T13:55:59.890Z,97248.53
2018-11-21T13:58:27.534Z,97244.78
2018-11-21T14:00:55.198Z,97249.06
2018-11-21T14:03:22.768Z,97256.33
2018-11-21T14:05:50.429Z,97265.97
2018-11-21T14:08:17.996Z,97262.36
2018-11-21T14:10:45.598Z,97267.61
2018-11-21T14:13:13.175Z,97268.16
2018-11-21T14:15:40.754Z,97270.63
2018-11-21T14:18:27.622Z,97269.91
2018-11-21T14:20:55.266Z,97279.78
2018-11-21T14:23:22.866Z,97276.71
2018-11-21T14:25:50.454Z,97285.88
2018-11-21T14:28:18.055Z,97284.73
2018-11-21T14:30:45.651Z,97292.92
2018-11-21T14:33:13.232Z,97294.34
2018-11-21T14:35:40.870Z,97301.25
2018-11-21T14:38:08.471Z,97293.83
2018-11-21T14:40:36.052Z,97300.31
2018-11-21T14:43:03.640Z,97297.09
2018-11-21T14:45:31.214Z,97298.08
2018-11-21T14:47:58.840Z,97301.30
2018-11-21T14:50:27.578Z,97307.46
2018-11-21T14:52:55.442Z,97311.50
2018-11-21T14:55:23.074Z,97309.31
2018-11-21T14:57:50.753Z,97316.11
2018-11-21T15:00:19.747Z,97313.17
2018-11-21T15:02:47.364Z,97321.94
2018-11-21T15:05:15.359Z,97327.79
2018-11-21T15:07:43.853Z,97331.72
2018-11-21T15:10:12.369Z,97332.30
2018-11-21T15:12:40.029Z,97330.80
2018-11-21T15:15:08.898Z,97334.69
2018-11-21T15:17:36.559Z,97340.23
2018-11-21T15:20:05.001Z,97342.11
2018-11-21T15:22:32.612Z,97338.00
2018-11-21T15:25:00.243Z,97333.44
2018-11-21T15:27:27.866Z,97336.05
2018-11-21T15:30:00.075Z,97345.84
2018-11-21T15:32:23.320Z,97336.85
2018-11-21T15:34:50.928Z,97342.70
2018-11-21T15:37:18.562Z,97348.56
2018-11-21T15:39:46.249Z,97355.91
2018-11-21T15:42:13.857Z,97358.50
2018-11-21T15:44:41.508Z,97361.67
2018-11-21T15:47:09.154Z,97365.07
2018-11-21T15:49:36.843Z,97361.19
2018-11-21T15:52:04.564Z,97362.45
2018-11-21T15:54:32.168Z,97356.63
2018-11-21T15:56:59.884Z,97354.02
2018-11-21T15:59:27.452Z,97358.70
2018-11-21T16:01:55.348Z,97361.56
2018-11-21T16:04:22.973Z,97363.05
2018-11-21T16:06:50.636Z,97371.10
2018-11-21T16:09:18.320Z,97372.39
2018-11-21T16:11:45.950Z,97377.75
2018-11-21T16:14:13.538Z,97375.69
2018-11-21T16:16:41.122Z,97381.70
2018-11-21T16:19:08.850Z,97386.67
2018-11-21T16:21:36.466Z,97383.52
2018-11-21T16:24:04.214Z,97382.41
2018-11-21T16:26:31.847Z,97391.19
2018-11-21T16:28:59.460Z,97396.32
2018-11-21T16:31:27.196Z,97278.83
2018-11-21T16:33:54.815Z,97398.05
2018-11-21T16:36:27.081Z,97396.31
2018-11-21T16:38:50.235Z,97399.70
2018-11-21T16:41:17.966Z,97398.66
2018-11-21T16:43:45.643Z,97405.02
2018-11-21T16:46:13.276Z,97404.38
2018-11-21T16:48:40.984Z,97403.11
2018-11-21T16:51:08.599Z,97417.42
2018-11-21T16:53:37.191Z,97414.01
2018-11-21T16:56:03.898Z,97416.30
2018-11-21T16:58:31.549Z,97416.94
2018-11-21T17:00:59.605Z,97418.11
2018-11-21T17:03:26.890Z,97420.71
2018-11-21T17:05:54.583Z,97423.40
2018-11-21T17:08:22.233Z,97418.34
2018-11-21T17:10:50.017Z,97425.55
2018-11-21T17:13:17.708Z,97423.66
2018-11-21T17:15:45.419Z,97421.75
2018-11-21T17:18:13.077Z,97424.13
2018-11-21T17:20:43.243Z,97423.16
2018-11-21T17:23:10.941Z,97430.39
2018-11-21T17:25:39.672Z,97433.77
2018-11-21T17:28:07.300Z,97434.38
2018-11-21T17:30:35.015Z,97435.59
2018-11-21T17:33:02.667Z,97440.64
2018-11-21T17:35:30.547Z,97445.20
2018-11-21T17:38:01.909Z,97444.84
2018-11-21T17:40:31.029Z,97449.66
2018-11-21T17:42:59.077Z,97446.09
2018-11-21T17:45:26.665Z,97446.34
2018-11-21T17:47:54.445Z,97446.81
2018-11-21T17:50:23.435Z,97309.02
2018-11-21T17:52:52.610Z,97444.76
2018-11-21T17:55:24.813Z,97447.92
2018-11-21T17:57:52.435Z,97447.74
2018-11-21T18:00:21.929Z,97451.86
2018-11-21T18:02:49.592Z,97458.04
2018-11-21T18:05:21.809Z,97452.00
2018-11-21T18:07:49.396Z,97460.16
2018-11-21T18:10:21.870Z,97460.75
2018-11-21T18:12:49.155Z,97456.81
2018-11-21T18:15:17.480Z,97461.90
2018-11-21T18:17:46.163Z,97464.23
2018-11-21T18:20:14.437Z,97468.82
2018-11-21T18:22:42.706Z,97462.26
2018-11-21T18:25:11.713Z,97460.43
2018-11-21T18:27:39.374Z,97464.53
2018-11-21T18:30:10.721Z,97469.84
2018-11-21T18:32:38.294Z,97465.55
2018-11-21T18:35:07.099Z,97463.44
2018-11-21T18:37:34.677Z,97464.05
2018-11-21T18:40:02.265Z,97467.25
2018-11-21T18:42:29.851Z,97462.93
2018-11-21T18:44:57.453Z,97469.87
2018-11-21T18:47:25.060Z,97464.68
2018-11-21T18:49:52.672Z,97471.73
2018-11-21T18:52:20.261Z,97469.69
2018-11-21T18:54:47.892Z,97471.37
2018-11-21T18:57:47.190Z,97478.44
2018-11-21T19:00:22.146Z,97486.08
2018-11-21T19:02:49.757Z,97491.16
2018-11-21T19:05:17.347Z,97492.17
2018-11-21T19:07:44.945Z,97490.72
2018-11-21T19:10:14.079Z,97494.17
2018-11-21T19:12:41.976Z,97493.03
2018-11-21T19:15:10.323Z,97501.11
2018-11-21T19:17:37.910Z,97499.94
2018-11-21T19:20:07.043Z,97503.02
2018-11-21T19:22:34.633Z,97503.31
2018-11-21T19:25:02.208Z,97502.91
2018-11-21T19:27:29.804Z,97505.00
2018-11-21T19:29:57.390Z,97505.11
2018-11-21T19:32:25.002Z,97505.22
2018-11-21T19:34:52.575Z,97502.89
2018-11-21T19:37:20.160Z,97505.38
2018-11-21T19:39:47.750Z,97502.84
2018-11-21T19:42:20.147Z,97503.30
2018-11-21T19:44:42.934Z,97507.86
2018-11-21T19:47:10.667Z,97509.53
2018-11-21T19:49:38.304Z,97515.89
2018-11-21T19:52:06.078Z,97520.80
2018-11-21T19:54:33.728Z,97519.23
2018-11-21T19:57:01.391Z,97522.58
2018-11-21T19:59:29.149Z,97523.42
2018-11-21T20:01:56.911Z,97523.98
2018-11-21T20:04:24.545Z,97522.08
2018-11-21T20:06:52.153Z,97526.59
2018-11-21T20:09:19.857Z,97523.99
2018-11-21T20:11:47.603Z,97516.61
2018-11-21T20:14:15.311Z,97518.81
2018-11-21T20:16:42.960Z,97522.52
2018-11-21T20:19:10.663Z,97522.05
2018-11-21T20:21:38.262Z,97521.58
2018-11-21T20:24:05.897Z,97519.70
2018-11-21T20:26:33.576Z,97519.73
2018-11-21T20:29:01.453Z,97521.48
2018-11-21T20:31:29.096Z,97520.20
2018-11-21T20:34:16.077Z,97523.39
2018-11-21T20:36:43.836Z,97522.16
2018-11-21T20:39:12.698Z,97516.94
2018-11-21T20:41:40.775Z,97514.80
2018-11-21T20:44:08.444Z,97520.81
2018-11-21T20:46:36.012Z,97515.84
2018-11-21T20:49:03.692Z,97517.85
2018-11-21T20:51:31.413Z,97519.85
2018-11-21T20:53:59.068Z,97513.05
2018-11-21T20:56:26.743Z,97517.42
2018-11-21T20:58:54.527Z,97518.91
2018-11-21T21:01:22.174Z,97515.16
2018-11-21T21:03:49.798Z,97512.71
2018-11-21T21:06:17.397Z,97515.23
2018-11-21T21:08:45.018Z,97519.86
2018-11-21T21:11:31.927Z,97507.39
2018-11-21T21:14:02.036Z,97508.12
2018-11-21T21:16:29.689Z,97513.80
2018-11-21T21:18:57.376Z,97513.01
2018-11-21T21:21:24.999Z,97512.60
2018-11-21T21:26:42.391Z,97514.09
2018-11-21T21:29:10.051Z,97512.28
2018-11-21T21:31:37.645Z,97512.02
2018-11-21T21:34:05.300Z,97510.02
2018-11-21T21:36:32.923Z,97516.97
2018-11-21T21:39:00.544Z,97514.89
2018-11-21T21:41:28.347Z,97514.23
2018-11-21T21:43:55.933Z,97514.38
2018-11-21T21:46:23.605Z,97517.48
2018-11-21T21:48:51.399Z,97516.14
2018-11-21T21:51:38.095Z,97513.73
2018-11-21T21:54:05.817Z,97516.02
2018-11-21T21:56:33.449Z,97517.27
2018-11-21T21:59:20.396Z,97519.34
2018-11-21T22:01:48.234Z,97521.82
2018-11-21T22:04:16.478Z,97522.91
2018-11-21T22:06:44.168Z,97515.91
2018-11-21T22:09:12.900Z,97522.00
2018-11-21T22:11:41.329Z,97527.78
2018-11-21T22:14:28.230Z,97523.46
2018-11-21T22:17:14.948Z,97529.46
2018-11-21T22:19:42.579Z,97533.45
2018-11-21T22:22:29.345Z,97544.72
2018-11-21T22:24:56.929Z,97540.73
2018-11-21T22:27:24.600Z,97542.98
2018-11-21T22:30:11.334Z,97540.36
2018-11-21T22:32:58.049Z,97543.39
2018-11-21T22:35:27.227Z,97543.77
2018-11-21T22:38:13.958Z,97547.76
2018-11-21T22:40:41.590Z,97544.28
2018-11-21T22:43:28.452Z,97542.53
2018-11-21T22:45:56.087Z,97542.91
